createdAt,value
2018-12-31T00:01:08.119Z,0.10
2018-12-31T00:03:36.610Z,0.00
2018-12-31T00:06:05.094Z,0.00
2018-12-31T00:08:33.405Z,-0.10
2018-12-31T00:11:02.626Z,-0.20
2018-12-31T00:13:30.943Z,-0.20
2018-12-31T00:15:59.675Z,-0.30
2018-12-31T00:18:28.039Z,-0.40
2018-12-31T00:20:56.442Z,-0.40
2018-12-31T00:23:25.021Z,-0.50
2018-12-31T00:25:53.560Z,-0.50
2018-12-31T00:28:21.866Z,-0.50
2018-12-31T00:30:50.200Z,-0.50
2018-12-31T00:33:19.197Z,-0.40
2018-12-31T00:35:47.831Z,-0.50
2018-12-31T00:38:16.170Z,-0.50
2018-12-31T00:40:44.599Z,-0.50
2018-12-31T00:43:13.366Z,-0.50
2018-12-31T00:45:41.957Z,-0.60
2018-12-31T00:48:10.524Z,-0.60
2018-12-31T00:50:39.018Z,-0.60
2018-12-31T00:53:07.332Z,-0.60
2018-12-31T00:55:35.670Z,-0.60
2018-12-31T00:58:04.074Z,-0.70
2018-12-31T01:00:32.702Z,-0.70
2018-12-31T01:03:01.011Z,-0.70
2018-12-31T01:05:29.301Z,-0.80
2018-12-31T01:07:58.417Z,-1.00
2018-12-31T01:10:26.744Z,-1.00
2018-12-31T01:12:55.041Z,-1.20
2018-12-31T01:15:23.535Z,-1.20
2018-12-31T01:17:52.180Z,-1.40
2018-12-31T01:20:20.749Z,-1.40
2018-12-31T01:22:49.116Z,-1.50
2018-12-31T01:25:17.449Z,-1.60
2018-12-31T01:27:46.071Z,-1.70
2018-12-31T01:30:14.469Z,-1.80
2018-12-31T01:32:42.800Z,-1.80
2018-12-31T01:35:11.084Z,-1.90
2018-12-31T01:37:39.472Z,-2.00
2018-12-31T01:40:07.844Z,-2.10
2018-12-31T01:42:36.263Z,-2.10
2018-12-31T01:45:04.769Z,-2.20
2018-12-31T01:47:33.130Z,-2.20
2018-12-31T01:50:01.468Z,-2.20
2018-12-31T01:52:29.994Z,-2.20
2018-12-31T01:54:58.590Z,-2.30
2018-12-31T01:57:27.241Z,-2.30
2018-12-31T01:59:55.580Z,-2.40
2018-12-31T02:02:24.115Z,-2.40
2018-12-31T02:04:52.811Z,-2.40
2018-12-31T02:07:21.286Z,-2.40
2018-12-31T02:09:49.598Z,-2.30
2018-12-31T02:12:17.948Z,-2.30
2018-12-31T02:14:46.277Z,-2.10
2018-12-31T02:17:14.639Z,-2.10
2018-12-31T02:19:43.527Z,-2.00
2018-12-31T02:22:11.827Z,-2.00
2018-12-31T02:24:40.115Z,-2.10
2018-12-31T02:27:08.715Z,-2.10
2018-12-31T02:29:37.499Z,-2.20
2018-12-31T02:32:05.851Z,-2.20
2018-12-31T02:34:34.269Z,-2.30
2018-12-31T02:37:02.648Z,-2.40
2018-12-31T02:39:30.980Z,-2.40
2018-12-31T02:41:59.403Z,-2.50
2018-12-31T02:44:28.017Z,-2.60
2018-12-31T02:46:56.319Z,-2.60
2018-12-31T02:49:24.786Z,-2.70
2018-12-31T02:51:53.567Z,-2.70
2018-12-31T02:54:21.867Z,-2.80
2018-12-31T02:56:50.263Z,-2.80
2018-12-31T02:59:18.594Z,-2.90
2018-12-31T03:01:47.023Z,-3.00
2018-12-31T03:04:15.373Z,-3.00
2018-12-31T03:06:43.868Z,-3.00
2018-12-31T03:09:12.198Z,-3.00
2018-12-31T03:11:40.570Z,-3.00
2018-12-31T03:14:08.944Z,-2.90
2018-12-31T03:16:37.270Z,-2.90
2018-12-31T03:19:05.662Z,-2.80
2018-12-31T03:21:34.122Z,-2.60
2018-12-31T03:24:02.598Z,-2.50
2018-12-31T03:26:30.872Z,-2.60
2018-12-31T03:28:59.246Z,-2.50
2018-12-31T03:31:28.031Z,-2.30
2018-12-31T03:33:56.431Z,-2.30
2018-12-31T03:36:24.926Z,-2.30
2018-12-31T03:38:53.318Z,-2.50
2018-12-31T03:41:21.858Z,-2.70
2018-12-31T03:43:50.257Z,-2.80
2018-12-31T03:46:18.627Z,-2.90
2018-12-31T03:48:47.108Z,-3.10
2018-12-31T03:51:15.654Z,-3.20
2018-12-31T03:53:44.181Z,-3.20
2018-12-31T03:56:12.753Z,-3.30
2018-12-31T03:58:41.108Z,-3.30
2018-12-31T04:01:09.529Z,-3.30
2018-12-31T04:03:37.891Z,-3.30
2018-12-31T04:06:06.200Z,-3.50
2018-12-31T04:08:34.712Z,-3.50
2018-12-31T04:11:03.035Z,-3.60
2018-12-31T04:13:31.491Z,-3.60
2018-12-31T04:16:00.752Z,-3.70
2018-12-31T04:18:29.037Z,-3.70
2018-12-31T04:20:57.334Z,-3.70
2018-12-31T04:23:26.382Z,-3.70
2018-12-31T04:25:54.905Z,-3.70
2018-12-31T04:28:23.251Z,-3.70
2018-12-31T04:30:51.873Z,-3.70
2018-12-31T04:33:20.677Z,-3.60
2018-12-31T04:35:49.109Z,-3.60
2018-12-31T04:38:17.482Z,-3.60
2018-12-31T04:40:45.870Z,-3.60
2018-12-31T04:43:14.197Z,-3.70
2018-12-31T04:45:43.130Z,-3.70
2018-12-31T04:48:11.441Z,-3.80
2018-12-31T04:50:40.189Z,-3.80
2018-12-31T04:53:08.537Z,-3.90
2018-12-31T04:55:44.319Z,-3.90
2018-12-31T04:58:05.300Z,-3.90
2018-12-31T05:00:33.662Z,-4.00
2018-12-31T05:03:02.010Z,-4.00
2018-12-31T05:05:30.290Z,-4.00
2018-12-31T05:07:58.698Z,-4.00
2018-12-31T05:10:27.126Z,-4.10
2018-12-31T05:12:55.525Z,-4.10
2018-12-31T05:15:23.874Z,-4.10
2018-12-31T05:17:52.226Z,-4.20
2018-12-31T05:20:20.518Z,-4.30
2018-12-31T05:22:48.827Z,-4.30
2018-12-31T05:25:17.776Z,-4.30
2018-12-31T05:27:46.108Z,-4.30
2018-12-31T05:30:14.526Z,-4.30
2018-12-31T05:32:42.842Z,-4.30
2018-12-31T05:35:11.656Z,-4.40
2018-12-31T05:37:39.982Z,-4.40
2018-12-31T05:40:08.300Z,-4.40
2018-12-31T05:42:36.623Z,-4.30
2018-12-31T05:45:05.048Z,-4.20
2018-12-31T05:47:33.368Z,-4.20
2018-12-31T05:50:01.654Z,-4.10
2018-12-31T05:52:29.976Z,-4.10
2018-12-31T05:54:58.534Z,-4.10
2018-12-31T05:57:27.048Z,-4.10
2018-12-31T05:59:55.530Z,-4.10
2018-12-31T06:02:24.084Z,-4.20
2018-12-31T06:04:52.452Z,-4.20
2018-12-31T06:07:20.774Z,-4.20
2018-12-31T06:09:49.089Z,-4.30
2018-12-31T06:12:17.527Z,-4.40
2018-12-31T06:14:45.972Z,-4.40
2018-12-31T06:17:14.378Z,-4.40
2018-12-31T06:19:42.664Z,-4.40
2018-12-31T06:22:10.967Z,-4.40
2018-12-31T06:24:39.355Z,-4.50
2018-12-31T06:27:08.034Z,-4.40
2018-12-31T06:29:36.392Z,-4.50
2018-12-31T06:32:04.916Z,-4.60
2018-12-31T06:34:33.819Z,-4.60
2018-12-31T06:37:02.595Z,-4.60
2018-12-31T06:39:30.929Z,-4.70
2018-12-31T06:41:59.297Z,-4.70
2018-12-31T06:44:27.763Z,-4.70
2018-12-31T06:46:56.262Z,-4.70
2018-12-31T06:49:24.668Z,-4.70
2018-12-31T06:51:53.216Z,-4.70
2018-12-31T06:54:21.647Z,-4.70
2018-12-31T06:56:50.142Z,-4.70
2018-12-31T06:59:18.572Z,-4.70
2018-12-31T07:01:46.877Z,-4.70
2018-12-31T07:04:15.239Z,-4.80
2018-12-31T07:06:43.654Z,-4.80
2018-12-31T07:09:12.104Z,-4.80
2018-12-31T07:11:40.485Z,-4.80
2018-12-31T07:14:08.930Z,-4.80
2018-12-31T07:16:37.258Z,-4.90
2018-12-31T07:19:06.046Z,-4.80
2018-12-31T07:21:34.398Z,-4.80
2018-12-31T07:24:02.953Z,-4.90
2018-12-31T07:26:31.319Z,-4.90
2018-12-31T07:29:00.041Z,-4.80
2018-12-31T07:31:28.353Z,-4.80
2018-12-31T07:33:56.727Z,-4.80
2018-12-31T07:36:25.092Z,-4.80
2018-12-31T07:38:53.773Z,-4.70
2018-12-31T07:41:22.287Z,-4.60
2018-12-31T07:43:50.636Z,-4.50
2018-12-31T07:46:18.943Z,-4.30
2018-12-31T07:48:47.421Z,-4.30
2018-12-31T07:51:15.754Z,-4.30
2018-12-31T07:53:44.236Z,-4.20
2018-12-31T07:56:12.859Z,-4.10
2018-12-31T07:58:41.217Z,-4.10
2018-12-31T08:01:09.631Z,-4.10
2018-12-31T08:03:37.990Z,-4.00
2018-12-31T08:06:06.988Z,-3.60
2018-12-31T08:08:35.883Z,-3.30
2018-12-31T08:11:04.284Z,-3.20
2018-12-31T08:13:32.568Z,-2.90
2018-12-31T08:16:00.928Z,-2.80
2018-12-31T08:18:29.326Z,-2.70
2018-12-31T08:20:57.637Z,-2.50
2018-12-31T08:23:25.989Z,-2.40
2018-12-31T08:25:54.347Z,-2.30
2018-12-31T08:28:22.939Z,-2.20
2018-12-31T08:30:51.779Z,-2.20
2018-12-31T08:33:20.101Z,-2.20
2018-12-31T08:35:48.748Z,-2.10
2018-12-31T08:38:17.087Z,-2.10
2018-12-31T08:40:46.117Z,-2.00
2018-12-31T08:43:14.528Z,-2.00
2018-12-31T08:45:43.102Z,-1.90
2018-12-31T08:48:11.515Z,-1.90
2018-12-31T08:50:39.830Z,-1.90
2018-12-31T08:53:08.199Z,-1.90
2018-12-31T08:55:36.574Z,-1.90
2018-12-31T08:58:05.613Z,-1.90
2018-12-31T09:00:33.921Z,-1.90
2018-12-31T09:03:02.447Z,-1.90
2018-12-31T09:05:31.074Z,-1.90
2018-12-31T09:07:59.438Z,-1.90
2018-12-31T09:10:27.835Z,-1.80
2018-12-31T09:12:56.177Z,-1.80
2018-12-31T09:15:24.568Z,-1.80
2018-12-31T09:17:52.910Z,-1.80
2018-12-31T09:20:21.230Z,-1.80
2018-12-31T09:22:49.555Z,-1.70
2018-12-31T09:25:18.035Z,-1.70
2018-12-31T09:27:46.326Z,-1.70
2018-12-31T09:30:14.898Z,-1.70
2018-12-31T09:32:43.576Z,-1.70
2018-12-31T09:35:11.910Z,-1.70
2018-12-31T09:37:40.216Z,-1.70
2018-12-31T09:40:08.583Z,-1.70
2018-12-31T09:42:37.246Z,-1.70
2018-12-31T09:45:05.699Z,-1.70
2018-12-31T09:47:34.122Z,-1.60
2018-12-31T09:50:02.482Z,-1.60
2018-12-31T09:52:30.925Z,-1.50
2018-12-31T09:54:59.213Z,-1.50
2018-12-31T09:57:27.739Z,-1.40
2018-12-31T09:59:56.119Z,-1.40
2018-12-31T10:02:24.725Z,-1.40
2018-12-31T10:04:53.078Z,-1.40
2018-12-31T10:07:21.486Z,-1.40
2018-12-31T10:09:49.839Z,-1.30
2018-12-31T10:12:18.362Z,-1.30
2018-12-31T10:14:46.775Z,-1.30
2018-12-31T10:17:15.115Z,-1.20
2018-12-31T10:19:43.469Z,-1.10
2018-12-31T10:22:12.030Z,-1.10
2018-12-31T10:24:40.980Z,-1.00
2018-12-31T10:27:09.350Z,-1.00
2018-12-31T10:29:37.719Z,-1.00
2018-12-31T10:32:06.083Z,-0.90
2018-12-31T10:34:35.036Z,-0.80
2018-12-31T10:37:03.547Z,-0.70
2018-12-31T10:39:31.894Z,-0.60
2018-12-31T10:42:00.283Z,-0.60
2018-12-31T10:44:29.007Z,-0.60
2018-12-31T10:46:57.310Z,-0.60
2018-12-31T10:49:25.692Z,-0.60
2018-12-31T10:51:54.146Z,-0.60
2018-12-31T10:54:22.675Z,-0.50
2018-12-31T10:56:51.166Z,-0.50
2018-12-31T10:59:19.505Z,-0.50
2018-12-31T11:01:47.861Z,-0.50
2018-12-31T11:04:16.231Z,-0.50
2018-12-31T11:06:44.550Z,-0.40
2018-12-31T11:09:12.929Z,-0.40
2018-12-31T11:11:41.263Z,-0.40
2018-12-31T11:14:09.826Z,-0.40
2018-12-31T11:16:38.147Z,-0.40
2018-12-31T11:19:06.649Z,-0.30
2018-12-31T11:21:35.061Z,-0.30
2018-12-31T11:24:03.621Z,-0.30
2018-12-31T11:26:32.201Z,-0.20
2018-12-31T11:29:00.596Z,-0.20
2018-12-31T11:31:30.437Z,-0.20
2018-12-31T11:33:57.373Z,-0.20
2018-12-31T11:36:26.098Z,-0.10
2018-12-31T11:38:54.661Z,-0.10
2018-12-31T11:41:23.053Z,0.00
2018-12-31T11:43:51.718Z,0.00
2018-12-31T11:46:20.591Z,0.10
2018-12-31T11:48:49.157Z,0.10
2018-12-31T11:51:17.792Z,0.10
2018-12-31T11:53:46.080Z,0.20
2018-12-31T11:56:14.389Z,0.20
2018-12-31T11:58:42.726Z,0.20
2018-12-31T12:01:11.017Z,0.20
2018-12-31T12:03:39.499Z,0.30
2018-12-31T12:06:07.905Z,0.40
2018-12-31T12:08:36.261Z,0.40
2018-12-31T12:11:04.648Z,0.40
2018-12-31T12:13:33.038Z,0.40
2018-12-31T12:16:01.414Z,0.50
2018-12-31T12:18:29.790Z,0.50
2018-12-31T12:20:58.285Z,0.60
2018-12-31T12:23:26.820Z,0.60
2018-12-31T12:25:55.865Z,0.60
2018-12-31T12:28:24.531Z,0.70
2018-12-31T12:30:53.222Z,0.70
2018-12-31T12:33:21.839Z,0.80
2018-12-31T12:35:50.279Z,0.70
2018-12-31T12:38:18.735Z,0.80
2018-12-31T12:40:47.090Z,0.80
2018-12-31T12:43:15.575Z,0.80
2018-12-31T12:45:43.945Z,0.80
2018-12-31T12:48:12.780Z,0.90
2018-12-31T12:50:41.261Z,0.90
2018-12-31T12:53:09.633Z,0.90
2018-12-31T12:55:38.243Z,0.90
2018-12-31T12:58:06.719Z,0.90
2018-12-31T13:00:35.081Z,0.90
2018-12-31T13:03:03.804Z,0.90
2018-12-31T13:05:32.092Z,1.00
2018-12-31T13:08:00.721Z,0.90
2018-12-31T13:10:29.126Z,1.00
2018-12-31T13:12:57.671Z,1.00
2018-12-31T13:15:26.106Z,1.00
2018-12-31T13:17:54.493Z,1.10
2018-12-31T13:20:22.839Z,1.10
2018-12-31T13:22:51.163Z,1.10
2018-12-31T13:25:19.515Z,1.10
2018-12-31T13:27:47.929Z,1.10
2018-12-31T13:30:16.304Z,1.10
2018-12-31T13:32:44.992Z,1.10
2018-12-31T13:35:13.306Z,1.20
2018-12-31T13:37:41.646Z,1.20
2018-12-31T13:40:10.338Z,1.20
2018-12-31T13:42:38.801Z,1.20
2018-12-31T13:45:07.428Z,1.30
2018-12-31T13:47:35.744Z,1.30
2018-12-31T13:50:04.678Z,1.30
2018-12-31T13:52:33.010Z,1.30
2018-12-31T13:55:01.549Z,1.20
2018-12-31T13:57:29.901Z,1.30
2018-12-31T13:59:58.492Z,1.20
2018-12-31T14:02:26.855Z,1.30
2018-12-31T14:04:55.422Z,1.30
2018-12-31T14:07:24.193Z,1.30
2018-12-31T14:09:52.728Z,1.40
2018-12-31T14:12:21.114Z,1.40
2018-12-31T14:14:49.497Z,1.40
2018-12-31T14:17:18.043Z,1.50
2018-12-31T14:19:46.727Z,1.50
2018-12-31T14:22:15.113Z,1.50
2018-12-31T14:24:43.491Z,1.50
2018-12-31T14:27:11.998Z,1.50
2018-12-31T14:29:40.342Z,1.50
2018-12-31T14:32:08.669Z,1.60
2018-12-31T14:34:37.188Z,1.60
2018-12-31T14:37:05.647Z,1.60
2018-12-31T14:39:34.074Z,1.60
2018-12-31T14:42:03.072Z,1.60
2018-12-31T14:44:31.661Z,1.60
2018-12-31T14:46:59.960Z,1.60
2018-12-31T14:49:28.672Z,1.50
2018-12-31T14:51:57.662Z,1.50
2018-12-31T14:54:26.272Z,1.40
2018-12-31T14:56:54.834Z,1.40
2018-12-31T14:59:23.354Z,1.40
2018-12-31T15:01:51.722Z,1.40
2018-12-31T15:04:20.060Z,1.40
2018-12-31T15:06:48.368Z,1.50
2018-12-31T15:09:16.907Z,1.50
2018-12-31T15:11:45.317Z,1.60
2018-12-31T15:14:14.122Z,1.50
2018-12-31T15:16:42.711Z,1.60
2018-12-31T15:19:11.015Z,1.60
2018-12-31T15:21:39.405Z,1.60
2018-12-31T15:24:08.162Z,1.60
2018-12-31T15:26:36.529Z,1.60
2018-12-31T15:29:04.953Z,1.60
2018-12-31T15:31:33.613Z,1.70
2018-12-31T15:34:01.932Z,1.70
2018-12-31T15:36:30.280Z,1.70
2018-12-31T15:38:58.820Z,1.70
2018-12-31T15:41:27.176Z,1.70
2018-12-31T15:43:55.825Z,1.70
2018-12-31T15:46:24.258Z,1.70
2018-12-31T15:48:52.944Z,1.70
2018-12-31T15:51:21.302Z,1.70
2018-12-31T15:53:50.181Z,1.70
2018-12-31T15:56:18.537Z,1.70
2018-12-31T15:58:46.950Z,1.70
2018-12-31T16:01:15.480Z,1.70
2018-12-31T16:03:43.806Z,1.70
2018-12-31T16:06:12.115Z,1.70
2018-12-31T16:08:40.449Z,1.70
2018-12-31T16:11:08.777Z,1.70
2018-12-31T16:13:37.144Z,1.70
2018-12-31T16:16:05.536Z,1.80
2018-12-31T16:18:33.848Z,1.80
2018-12-31T16:21:02.155Z,1.80
2018-12-31T16:23:30.720Z,1.70
2018-12-31T16:25:59.225Z,1.80
2018-12-31T16:28:27.727Z,1.80
2018-12-31T16:30:56.081Z,1.90
2018-12-31T16:33:24.566Z,1.90
2018-12-31T16:35:53.000Z,1.90
2018-12-31T16:38:21.418Z,1.90
2018-12-31T16:40:49.794Z,1.90
2018-12-31T16:43:18.157Z,1.90
2018-12-31T16:45:47.123Z,1.90
2018-12-31T16:48:15.430Z,1.80
2018-12-31T16:50:43.860Z,1.80
2018-12-31T16:53:12.206Z,1.80
2018-12-31T16:55:41.005Z,1.80
2018-12-31T16:58:10.115Z,1.80
2018-12-31T17:00:38.489Z,1.80
2018-12-31T17:03:06.942Z,1.80
2018-12-31T17:05:35.275Z,1.90
2018-12-31T17:08:03.600Z,1.90
2018-12-31T17:10:31.904Z,1.90
2018-12-31T17:13:00.485Z,1.90
2018-12-31T17:15:28.845Z,1.90
2018-12-31T17:17:57.245Z,1.80
2018-12-31T17:20:25.689Z,1.90
2018-12-31T17:22:54.303Z,1.90
2018-12-31T17:25:22.687Z,1.90
2018-12-31T17:27:51.120Z,1.90
2018-12-31T17:30:19.480Z,1.90
2018-12-31T17:32:47.933Z,1.90
2018-12-31T17:35:16.374Z,1.90
2018-12-31T17:37:44.766Z,1.90
2018-12-31T17:40:13.390Z,1.90
2018-12-31T17:42:41.829Z,1.90
2018-12-31T17:45:10.348Z,1.90
2018-12-31T17:47:39.306Z,1.90
2018-12-31T17:50:08.195Z,1.90
2018-12-31T17:52:36.739Z,1.90
2018-12-31T17:55:05.391Z,1.90
2018-12-31T17:57:33.759Z,2.00
2018-12-31T18:00:02.175Z,1.90
2018-12-31T18:02:30.862Z,2.00
2018-12-31T18:04:59.535Z,2.00
2018-12-31T18:07:27.897Z,2.10
2018-12-31T18:09:56.245Z,2.20
2018-12-31T18:12:24.656Z,2.20
2018-12-31T18:14:53.365Z,2.20
2018-12-31T18:17:21.865Z,2.20
2018-12-31T18:19:50.221Z,2.20
2018-12-31T18:22:18.604Z,2.20
2018-12-31T18:24:46.966Z,2.20
2018-12-31T18:27:15.368Z,2.20
2018-12-31T18:29:43.699Z,2.20
2018-12-31T18:32:12.570Z,2.30
2018-12-31T18:34:40.967Z,2.30
2018-12-31T18:37:09.353Z,2.30
2018-12-31T18:39:37.771Z,2.40
2018-12-31T18:42:06.189Z,2.40
2018-12-31T18:44:34.723Z,2.40
2018-12-31T18:47:03.061Z,2.40
2018-12-31T18:49:31.862Z,2.40
2018-12-31T18:52:00.418Z,2.50
2018-12-31T18:54:28.944Z,2.50
2018-12-31T18:56:57.453Z,2.50
2018-12-31T18:59:25.798Z,2.50
2018-12-31T19:01:54.144Z,2.50
2018-12-31T19:04:22.470Z,2.50
2018-12-31T19:06:50.994Z,2.60
2018-12-31T19:09:19.315Z,2.60
2018-12-31T19:11:47.660Z,2.60
2018-12-31T19:14:15.974Z,2.60
2018-12-31T19:16:44.958Z,2.60
2018-12-31T19:19:13.287Z,2.60
2018-12-31T19:21:42.220Z,2.60
2018-12-31T19:24:10.582Z,2.70
2018-12-31T19:26:39.169Z,2.70
2018-12-31T19:29:07.442Z,2.70
2018-12-31T19:31:36.010Z,2.80
2018-12-31T19:34:04.325Z,2.80
2018-12-31T19:36:33.203Z,2.80
2018-12-31T19:39:01.604Z,2.90
2018-12-31T19:41:30.106Z,2.90
2018-12-31T19:43:58.834Z,2.90
2018-12-31T19:46:27.282Z,2.90
2018-12-31T19:48:56.275Z,3.00
2018-12-31T19:51:25.280Z,3.00
2018-12-31T19:53:53.718Z,3.00
2018-12-31T19:56:22.036Z,3.00
2018-12-31T19:58:50.385Z,3.00
2018-12-31T20:01:18.827Z,3.00
2018-12-31T20:03:47.492Z,3.00
2018-12-31T20:06:15.889Z,3.00
2018-12-31T20:08:44.522Z,3.00
2018-12-31T20:11:12.950Z,3.10
2018-12-31T20:13:41.630Z,3.10
2018-12-31T20:16:10.134Z,3.10
2018-12-31T20:18:38.568Z,3.10
2018-12-31T20:21:06.913Z,3.10
2018-12-31T20:23:35.610Z,3.20
2018-12-31T20:26:04.442Z,3.20
2018-12-31T20:28:32.775Z,3.20
2018-12-31T20:31:01.200Z,3.30
2018-12-31T20:33:29.829Z,3.30
2018-12-31T20:35:58.874Z,3.30
2018-12-31T20:38:27.414Z,3.30
2018-12-31T20:40:55.786Z,3.30
2018-12-31T20:43:24.318Z,3.40
2018-12-31T20:45:52.999Z,3.40
2018-12-31T20:48:21.889Z,3.50
2018-12-31T20:50:50.327Z,3.50
2018-12-31T20:53:19.319Z,3.50
2018-12-31T20:55:48.967Z,3.50
2018-12-31T20:58:17.960Z,3.60
2018-12-31T21:00:46.411Z,3.60
2018-12-31T21:03:14.812Z,3.60
2018-12-31T21:05:43.110Z,3.70
2018-12-31T21:08:11.466Z,3.80
2018-12-31T21:10:39.928Z,3.80
2018-12-31T21:13:08.291Z,3.80
2018-12-31T21:15:36.594Z,3.80
2018-12-31T21:18:05.168Z,3.80
2018-12-31T21:20:33.971Z,3.80
2018-12-31T21:23:02.794Z,3.70
2018-12-31T21:25:31.177Z,3.70
2018-12-31T21:27:59.477Z,3.80
2018-12-31T21:30:27.808Z,3.70
2018-12-31T21:32:56.336Z,3.70
2018-12-31T21:35:24.852Z,3.80
2018-12-31T21:37:53.274Z,3.80
2018-12-31T21:40:21.668Z,3.80
2018-12-31T21:42:50.066Z,3.80
2018-12-31T21:45:18.415Z,3.80
2018-12-31T21:47:46.796Z,3.90
2018-12-31T21:50:15.368Z,3.90
2018-12-31T21:52:43.696Z,4.00
2018-12-31T21:55:12.278Z,4.00
2018-12-31T21:57:40.693Z,4.00
2018-12-31T22:00:09.249Z,4.00
2018-12-31T22:02:37.616Z,4.10
2018-12-31T22:05:06.043Z,4.10
2018-12-31T22:07:34.386Z,4.20
2018-12-31T22:10:02.749Z,4.20
2018-12-31T22:12:31.439Z,4.20
2018-12-31T22:14:59.804Z,4.20
2018-12-31T22:17:28.296Z,4.20
2018-12-31T22:19:56.678Z,4.20
2018-12-31T22:22:25.254Z,4.30
2018-12-31T22:24:53.641Z,4.20
2018-12-31T22:27:22.010Z,4.20
2018-12-31T22:29:50.405Z,4.30
2018-12-31T22:32:18.763Z,4.30
2018-12-31T22:34:47.096Z,4.30
2018-12-31T22:37:15.419Z,4.30
2018-12-31T22:39:43.774Z,4.30
2018-12-31T22:42:12.274Z,4.30
2018-12-31T22:44:40.771Z,4.30
2018-12-31T22:47:09.102Z,4.30
2018-12-31T22:49:37.882Z,4.30
2018-12-31T22:52:06.371Z,4.30
2018-12-31T22:54:36.580Z,4.30
2018-12-31T22:57:03.554Z,4.30
2018-12-31T22:59:31.921Z,4.30
2018-12-31T23:02:00.648Z,4.40
2018-12-31T23:04:28.976Z,4.50
2018-12-31T23:07:00.884Z,4.50
2018-12-31T23:09:29.206Z,4.50
2018-12-31T23:11:57.576Z,4.50
2018-12-31T23:14:26.376Z,4.50
2018-12-31T23:16:59.004Z,4.50
2018-12-31T23:19:27.403Z,4.60
2018-12-31T23:21:55.767Z,4.60
2018-12-31T23:24:24.521Z,4.60
2018-12-31T23:26:52.901Z,4.60
2018-12-31T23:29:21.260Z,4.60
2018-12-31T23:31:49.617Z,4.60
2018-12-31T23:34:18.242Z,4.60
2018-12-31T23:36:46.661Z,4.60
2018-12-31T23:39:15.016Z,4.60
2018-12-31T23:41:43.713Z,4.60
2018-12-31T23:44:12.083Z,4.60
2018-12-31T23:46:40.385Z,4.70
2018-12-31T23:49:08.704Z,4.70
2018-12-31T23:51:37.084Z,4.80
2018-12-31T23:54:05.407Z,4.80
2018-12-31T23:56:33.760Z,4.90
2018-12-31T23:59:02.311Z,4.90
